Time;durP1;ratioP1;P1;durP2;ratioP2;P2;SDS_P1;SDS_P2;PMS_P1;PMS_P2;Temp;Humidity;BMP_temperature;BMP_pressure;BME280_temperature;BME280_humidity;BME280_pressure;Samples;Min_cycle;Max_cycle;Signal;HPM_P1;HPM_P2
2024/01/08 05:59:55;;;;;;;29.47;15.07;;;0.70;90.60;;;;;;727089;176;28201;-72
2024/01/08 06:02:22;;;;;;;29.13;15.43;;;0.60;90.50;;;;;;760887;188;27108;-72
2024/01/08 06:04:49;;;;;;;26.43;14.33;;;0.50;90.40;;;;;;759941;186;26498;-72
2024/01/08 06:07:15;;;;;;;23.27;13.53;;;0.50;90.50;;;;;;743475;191;27069;-74
2024/01/08 06:09:42;;;;;;;23.67;12.80;;;0.50;90.20;;;;;;759616;188;26596;-72
2024/01/08 06:12:08;;;;;;;22.70;13.63;;;0.40;90.20;;;;;;756340;188;27064;-72
2024/01/08 06:14:35;;;;;;;25.40;14.20;;;0.40;90.40;;;;;;763333;187;26576;-72
2024/01/08 06:17:02;;;;;;;22.47;13.20;;;0.40;90.40;;;;;;757374;187;27128;-73
2024/01/08 06:19:28;;;;;;;23.67;12.87;;;0.40;90.10;;;;;;761543;187;26541;-73
2024/01/08 06:21:55;;;;;;;22.30;12.40;;;0.40;90.00;;;;;;767960;176;26536;-74
2024/01/08 06:24:21;;;;;;;22.10;13.03;;;0.40;89.90;;;;;;774906;182;26566;-74
2024/01/08 06:26:48;;;;;;;27.73;14.33;;;0.40;90.30;;;;;;771342;184;26618;-75
2024/01/08 06:29:16;;;;;;;22.77;11.73;;;0.40;90.20;;;;;;770403;184;26582;-75
2024/01/08 06:31:41;;;;;;;24.27;13.13;;;0.40;90.10;;;;;;766729;184;27129;-75
2024/01/08 06:34:08;;;;;;;24.80;12.87;;;0.40;89.40;;;;;;776715;184;26534;-74
2024/01/08 06:36:34;;;;;;;24.40;12.60;;;0.40;89.20;;;;;;777464;183;27106;-75
2024/01/08 06:39:01;;;;;;;21.27;11.33;;;0.40;89.60;;;;;;773465;184;26537;-73
2024/01/08 06:41:27;;;;;;;22.93;12.07;;;0.40;89.20;;;;;;769043;185;28148;-75
2024/01/08 06:43:54;;;;;;;22.57;12.40;;;0.40;88.50;;;;;;773479;185;26566;-75
2024/01/08 06:46:21;;;;;;;26.73;13.73;;;0.40;88.70;;;;;;766101;185;27120;-76
2024/01/08 06:48:47;;;;;;;26.93;13.93;;;0.40;88.60;;;;;;773411;185;26478;-75
2024/01/08 06:51:14;;;;;;;22.67;11.67;;;0.40;88.30;;;;;;771143;186;27143;-73
2024/01/08 06:53:40;;;;;;;21.80;11.03;;;0.40;88.70;;;;;;769017;185;26459;-76
2024/01/08 06:56:07;;;;;;;19.97;11.03;;;0.40;87.40;;;;;;766794;186;27112;-76
2024/01/08 06:58:34;;;;;;;20.20;11.00;;;0.40;86.70;;;;;;770926;186;26478;-76
2024/01/08 07:01:00;;;;;;;26.93;13.93;;;0.40;86.70;;;;;;775460;184;26511;-75
2024/01/08 07:03:27;;;;;;;20.67;11.10;;;0.40;87.50;;;;;;771911;184;26517;-76
2024/01/08 07:05:53;;;;;;;19.67;11.13;;;0.40;87.90;;;;;;764195;184;26480;-74
2024/01/08 07:08:20;;;;;;;19.73;10.73;;;0.40;87.20;;;;;;768938;184;26579;-75
2024/01/08 07:10:47;;;;;;;21.13;11.50;;;0.40;86.90;;;;;;770183;185;26577;-76
2024/01/08 07:13:13;;;;;;;19.13;11.43;;;0.40;87.30;;;;;;767370;186;26566;-74
2024/01/08 07:15:41;;;;;;;18.83;10.43;;;0.40;87.80;;;;;;765691;187;26464;-75
2024/01/08 07:18:10;;;;;;;20.10;10.53;;;0.50;88.40;;;;;;765966;186;26592;-73
2024/01/08 07:20:37;;;;;;;16.80;10.10;;;0.50;87.20;;;;;;770686;186;26471;-75
2024/01/08 07:23:08;;;;;;;20.07;9.87;;;0.50;86.90;;;;;;765178;184;26517;-76
2024/01/08 07:25:35;;;;;;;15.97;9.23;;;0.50;86.90;;;;;;767563;185;28153;-73
2024/01/08 07:28:01;;;;;;;15.20;9.33;;;0.60;87.10;;;;;;772216;185;26497;-76
2024/01/08 07:30:28;;;;;;;14.87;9.30;;;0.60;86.80;;;;;;765191;185;26518;-75
2024/01/08 07:32:54;;;;;;;17.33;9.60;;;0.60;85.80;;;;;;772787;184;26591;-76
2024/01/08 07:35:21;;;;;;;18.57;10.33;;;0.60;86.10;;;;;;771359;182;26505;-75
2024/01/08 07:37:51;;;;;;;19.57;11.00;;;0.60;86.00;;;;;;770334;186;26539;-75
2024/01/08 07:40:14;;;;;;;17.83;9.97;;;0.60;86.80;;;;;;770742;185;26524;-76
2024/01/08 07:42:41;;;;;;;18.13;9.43;;;0.60;85.90;;;;;;767124;185;27111;-76
2024/01/08 07:45:08;;;;;;;15.13;9.43;;;0.60;85.30;;;;;;763033;188;26534;-75
2024/01/08 07:47:34;;;;;;;18.90;9.07;;;0.60;85.00;;;;;;765621;185;26553;-77
2024/01/08 07:50:01;;;;;;;16.20;10.30;;;0.60;84.10;;;;;;766383;185;26489;-76
2024/01/08 07:52:28;;;;;;;13.10;8.97;;;0.60;84.60;;;;;;769266;185;26528;-77
2024/01/08 07:54:54;;;;;;;15.23;8.13;;;0.60;84.90;;;;;;768013;185;28152;-77
2024/01/08 07:57:21;;;;;;;13.20;7.93;;;0.60;84.20;;;;;;771896;185;26536;-77
2024/01/08 07:59:48;;;;;;;12.83;7.83;;;0.60;83.60;;;;;;768439;185;27027;-77
2024/01/08 08:02:15;;;;;;;13.23;7.17;;;0.60;82.50;;;;;;764240;182;26559;-77
2024/01/08 08:04:41;;;;;;;13.80;7.67;;;0.60;81.60;;;;;;769389;184;27111;-77
2024/01/08 08:07:08;;;;;;;13.53;7.40;;;0.70;82.10;;;;;;764296;186;26569;-76
2024/01/08 08:09:34;;;;;;;14.00;8.53;;;0.70;82.30;;;;;;772661;185;27106;-76
2024/01/08 08:12:01;;;;;;;13.30;7.63;;;0.70;81.90;;;;;;771695;185;26580;-77
2024/01/08 08:14:28;;;;;;;13.13;7.80;;;0.70;82.40;;;;;;769643;186;26543;-75
2024/01/08 08:16:54;;;;;;;11.83;7.03;;;0.70;82.00;;;;;;768136;186;26476;-78
2024/01/08 08:19:21;;;;;;;10.97;7.23;;;0.80;82.00;;;;;;769870;186;26487;-76
2024/01/08 08:21:47;;;;;;;11.80;7.90;;;0.70;81.10;;;;;;764707;186;26593;-76
2024/01/08 08:24:14;;;;;;;13.13;8.00;;;0.80;81.40;;;;;;769892;186;26507;-76
2024/01/08 08:26:41;;;;;;;14.13;7.23;;;0.80;81.00;;;;;;773075;185;26470;-77
2024/01/08 08:29:07;;;;;;;12.43;7.20;;;0.80;80.40;;;;;;773326;186;26553;-77
2024/01/08 08:31:35;;;;;;;15.03;7.33;;;0.80;80.60;;;;;;767399;186;26510;-77
2024/01/08 08:34:01;;;;;;;16.50;8.30;;;0.80;80.70;;;;;;767386;186;26545;-76
2024/01/08 08:36:27;;;;;;;13.60;8.07;;;0.90;82.10;;;;;;764568;186;26460;-76
2024/01/08 08:38:54;;;;;;;12.03;7.20;;;0.90;81.50;;;;;;765482;187;27040;-76
2024/01/08 08:41:20;;;;;;;13.07;7.53;;;0.90;81.50;;;;;;768843;185;26532;-75
2024/01/08 08:43:48;;;;;;;12.97;7.20;;;0.90;79.80;;;;;;767795;185;27049;-76
2024/01/08 08:46:15;;;;;;;12.93;8.07;;;0.90;80.00;;;;;;766297;185;26465;-76
2024/01/08 08:48:41;;;;;;;16.67;7.90;;;1.00;79.20;;;;;;763105;182;26483;-76
2024/01/08 08:51:07;;;;;;;13.87;7.53;;;1.00;78.50;;;;;;765850;185;27061;-76
2024/01/08 08:53:34;;;;;;;16.33;8.03;;;1.00;78.90;;;;;;773910;185;26661;-77
2024/01/08 08:56:00;;;;;;;12.67;6.70;;;1.00;79.00;;;;;;771503;185;27099;-76
2024/01/08 08:58:28;;;;;;;14.27;7.23;;;1.10;78.90;;;;;;773556;184;26479;-76
2024/01/08 09:00:53;;;;;;;11.27;7.40;;;1.10;78.50;;;;;;769307;185;27047;-76
2024/01/08 09:03:20;;;;;;;10.97;7.13;;;1.20;78.30;;;;;;768418;186;26499;-76
2024/01/08 09:05:47;;;;;;;12.97;7.30;;;1.20;78.40;;;;;;767378;187;27076;-75
2024/01/08 09:08:14;;;;;;;14.17;7.57;;;1.20;78.60;;;;;;776434;184;26525;-75
2024/01/08 09:10:40;;;;;;;14.43;7.33;;;1.20;78.80;;;;;;774608;183;26536;-76
2024/01/08 09:13:07;;;;;;;14.37;8.73;;;1.30;79.40;;;;;;768346;185;26546;-74
2024/01/08 09:15:33;;;;;;;16.40;7.70;;;1.30;79.90;;;;;;768896;186;26484;-74
2024/01/08 09:18:01;;;;;;;15.20;8.57;;;1.30;80.70;;;;;;772881;186;26496;-75
2024/01/08 09:20:27;;;;;;;13.47;8.73;;;1.20;81.70;;;;;;772892;185;26479;-75
2024/01/08 09:22:53;;;;;;;15.83;9.17;;;1.20;82.60;;;;;;773033;186;26493;-75
2024/01/08 09:25:20;;;;;;;17.67;8.90;;;1.10;83.70;;;;;;772985;185;26546;-73
2024/01/08 09:27:47;;;;;;;27.17;12.20;;;1.10;84.50;;;;;;770829;185;26532;-75
2024/01/08 09:30:13;;;;;;;16.07;9.23;;;1.00;85.50;;;;;;765665;187;26469;-75
2024/01/08 09:32:39;;;;;;;18.13;10.27;;;1.00;85.60;;;;;;765601;186;26554;-74
2024/01/08 09:35:06;;;;;;;20.37;9.33;;;1.00;86.20;;;;;;762645;188;27008;-74
2024/01/08 09:37:33;;;;;;;20.60;10.37;;;1.00;86.50;;;;;;765284;186;26459;-75
2024/01/08 09:40:00;;;;;;;20.30;9.73;;;0.90;87.10;;;;;;765735;187;26469;-75
2024/01/08 09:42:27;;;;;;;16.63;9.07;;;0.90;86.90;;;;;;765696;185;26485;-74
2024/01/08 09:44:53;;;;;;;19.60;8.50;;;0.80;86.50;;;;;;765686;187;26553;-74
2024/01/08 09:47:19;;;;;;;15.90;8.97;;;0.80;86.00;;;;;;772010;183;26534;-74
2024/01/08 09:49:46;;;;;;;16.60;9.40;;;0.80;86.80;;;;;;775480;185;26565;-75
2024/01/08 09:52:14;;;;;;;18.03;10.17;;;0.80;86.10;;;;;;774803;182;26491;-74
2024/01/08 09:54:41;;;;;;;18.33;9.40;;;0.90;85.90;;;;;;774442;185;26516;-74
2024/01/08 09:57:08;;;;;;;16.50;9.47;;;0.90;86.00;;;;;;773330;185;27093;-74
2024/01/08 09:59:33;;;;;;;17.13;8.97;;;1.00;84.50;;;;;;773615;185;26507;-74
2024/01/08 10:02:00;;;;;;;21.53;8.20;;;1.10;83.60;;;;;;773890;184;27108;-74
2024/01/08 10:04:27;;;;;;;18.23;9.13;;;1.20;82.60;;;;;;773931;185;26538;-74
2024/01/08 10:07:12;;;;;;;15.80;8.40;;;1.30;82.60;;;;;;772596;185;27114;-74
2024/01/08 10:09:39;;;;;;;15.23;8.17;;;1.50;82.60;;;;;;768303;185;26461;-75
2024/01/08 10:12:06;;;;;;;13.23;8.07;;;1.70;81.10;;;;;;769913;185;27097;-74
2024/01/08 10:14:33;;;;;;;16.87;8.63;;;1.80;80.90;;;;;;771280;185;26531;-74
2024/01/08 10:17:00;;;;;;;15.70;8.63;;;1.90;80.60;;;;;;771095;185;27086;-75
2024/01/08 10:19:27;;;;;;;15.67;8.70;;;2.00;79.60;;;;;;765791;185;26532;-74
2024/01/08 10:22:07;;;;;;;15.97;8.37;;;2.00;78.20;;;;;;766945;185;27044;-74
2024/01/08 10:24:34;;;;;;;11.13;7.37;;;1.90;76.90;;;;;;771957;185;26516;-75
2024/01/08 10:27:00;;;;;;;14.47;8.53;;;1.90;76.60;;;;;;767144;186;26552;-75
2024/01/08 10:29:27;;;;;;;13.63;8.60;;;1.90;76.20;;;;;;764301;186;26607;-74
2024/01/08 10:31:54;;;;;;;12.33;8.33;;;1.90;77.20;;;;;;766702;186;26496;-74
2024/01/08 10:34:21;;;;;;;15.40;8.33;;;1.90;76.20;;;;;;767905;185;27079;-74
2024/01/08 10:36:47;;;;;;;14.33;8.53;;;1.90;75.70;;;;;;769195;185;26511;-75
2024/01/08 10:39:13;;;;;;;12.97;8.20;;;2.00;76.70;;;;;;770164;186;26485;-75
2024/01/08 10:41:40;;;;;;;12.23;7.70;;;2.20;77.50;;;;;;767192;186;26526;-74
2024/01/08 10:44:07;;;;;;;16.23;8.77;;;2.50;76.70;;;;;;769468;186;27072;-74
2024/01/08 10:46:33;;;;;;;14.67;8.00;;;2.60;74.90;;;;;;764262;182;26516;-74
2024/01/08 10:49:00;;;;;;;13.07;7.00;;;2.50;72.20;;;;;;770453;186;27049;-74
2024/01/08 10:51:26;;;;;;;13.03;7.87;;;2.40;71.00;;;;;;768264;185;26547;-74
2024/01/08 10:53:53;;;;;;;13.57;7.77;;;2.30;70.80;;;;;;767957;186;27081;-75
2024/01/08 10:56:20;;;;;;;12.40;7.67;;;2.20;70.70;;;;;;769754;186;26532;-75
2024/01/08 10:58:50;;;;;;;13.63;7.33;;;2.00;68.70;;;;;;767251;183;27148;-75
2024/01/08 11:01:16;;;;;;;17.20;7.83;;;1.90;69.10;;;;;;769802;183;26509;-75
2024/01/08 11:03:42;;;;;;;12.70;7.90;;;1.80;69.70;;;;;;768683;182;28159;-74
2024/01/08 11:06:09;;;;;;;16.97;8.07;;;1.90;70.80;;;;;;767072;185;26501;-75
2024/01/08 11:08:35;;;;;;;16.27;7.83;;;2.40;70.00;;;;;;769462;185;26504;-74
2024/01/08 11:11:07;;;;;;;12.83;7.20;;;3.00;66.80;;;;;;773276;185;26568;-74
2024/01/08 11:13:32;;;;;;;12.13;7.33;;;3.40;63.80;;;;;;773761;185;26505;-74
2024/01/08 11:15:59;;;;;;;13.30;7.40;;;3.80;62.30;;;;;;773855;185;26536;-75
2024/01/08 11:18:26;;;;;;;14.30;7.27;;;3.90;60.30;;;;;;769514;185;26538;-75
2024/01/08 11:20:55;;;;;;;11.60;7.10;;;3.90;59.20;;;;;;770127;184;27072;-75
2024/01/08 11:23:30;;;;;;;16.33;9.03;;;3.90;58.90;;;;;;767026;185;26537;-75
2024/01/08 11:25:57;;;;;;;12.73;7.50;;;3.90;59.10;;;;;;770399;185;26464;-76
2024/01/08 11:28:23;;;;;;;12.67;7.17;;;3.80;58.40;;;;;;770400;184;27068;-75
2024/01/08 11:30:50;;;;;;;14.70;6.97;;;4.00;59.10;;;;;;775345;183;26550;-75
2024/01/08 11:33:48;;;;;;;14.30;7.90;;;3.90;57.40;;;;;;777583;184;28178;-74
2024/01/08 11:36:17;;;;;;;16.47;7.50;;;3.80;57.30;;;;;;765934;184;26546;-74
2024/01/08 11:38:42;;;;;;;12.43;7.27;;;3.70;58.10;;;;;;768667;185;26538;-75
2024/01/08 11:41:09;;;;;;;13.67;7.80;;;3.60;58.70;;;;;;771306;185;26705;-73
2024/01/08 11:43:35;;;;;;;16.00;7.67;;;3.60;58.70;;;;;;770774;184;27084;-75
2024/01/08 11:46:04;;;;;;;13.40;7.50;;;3.70;57.90;;;;;;765701;187;26478;-74
2024/01/08 11:48:28;;;;;;;13.37;7.20;;;3.80;57.20;;;;;;764012;186;27059;-75
2024/01/08 11:50:56;;;;;;;12.50;7.20;;;3.90;56.40;;;;;;762726;188;26541;-76
2024/01/08 11:53:22;;;;;;;12.97;6.87;;;4.00;56.40;;;;;;762710;188;27026;-76
2024/01/08 11:55:48;;;;;;;12.47;6.80;;;4.00;55.30;;;;;;762665;188;26471;-76
2024/01/08 11:58:15;;;;;;;13.20;7.33;;;4.10;54.80;;;;;;762611;188;26476;-73
2024/01/08 12:00:42;;;;;;;16.10;7.63;;;4.20;53.40;;;;;;764532;182;26511;-74
2024/01/08 12:03:09;;;;;;;10.77;6.47;;;4.50;54.00;;;;;;766823;181;26538;-74
2024/01/08 12:05:35;;;;;;;16.43;6.87;;;4.60;53.00;;;;;;764616;186;26519;-75
2024/01/08 12:08:03;;;;;;;13.53;7.37;;;5.00;52.10;;;;;;762714;188;26535;-75
2024/01/08 12:10:30;;;;;;;10.33;6.00;;;5.20;50.50;;;;;;764989;183;26564;-75
2024/01/08 12:12:55;;;;;;;14.33;7.53;;;5.20;49.90;;;;;;769283;181;27014;-76
2024/01/08 12:15:22;;;;;;;13.63;6.50;;;5.40;51.40;;;;;;773639;183;26666;-75
2024/01/08 12:17:48;;;;;;;16.13;7.87;;;5.70;52.00;;;;;;774573;184;26534;-73
2024/01/08 12:20:15;;;;;;;10.77;6.30;;;5.80;49.30;;;;;;772080;184;28347;-76
2024/01/08 12:22:42;;;;;;;11.40;6.00;;;5.90;48.20;;;;;;769180;184;26529;-75
2024/01/08 12:25:08;;;;;;;12.37;6.80;;;5.70;47.80;;;;;;763248;188;26473;-75
2024/01/08 12:27:35;;;;;;;12.83;6.70;;;5.60;47.90;;;;;;764692;186;26491;-75
2024/01/08 12:30:03;;;;;;;15.73;8.03;;;5.30;46.50;;;;;;763264;186;26539;-75
2024/01/08 12:32:28;;;;;;;10.27;6.33;;;5.20;48.40;;;;;;766324;186;26555;-74
2024/01/08 12:34:55;;;;;;;12.33;6.83;;;5.30;47.30;;;;;;764091;186;26562;-74
2024/01/08 12:37:22;;;;;;;13.07;6.60;;;5.30;46.90;;;;;;762733;188;26512;-73
2024/01/08 12:39:48;;;;;;;12.27;7.07;;;5.30;47.20;;;;;;766537;185;26557;-75
2024/01/08 12:42:15;;;;;;;12.47;7.27;;;5.30;48.50;;;;;;766543;185;27079;-75
2024/01/08 12:44:42;;;;;;;11.13;6.93;;;5.40;48.60;;;;;;768486;185;26480;-72
2024/01/08 12:47:08;;;;;;;15.03;7.27;;;5.40;48.90;;;;;;768372;185;27115;-75
2024/01/08 12:49:35;;;;;;;10.70;6.80;;;5.20;46.90;;;;;;765738;187;26480;-75
2024/01/08 12:52:01;;;;;;;18.90;8.17;;;5.00;48.00;;;;;;765839;186;27134;-75
2024/01/08 12:54:28;;;;;;;13.23;7.17;;;4.70;48.10;;;;;;765133;186;26481;-75
2024/01/08 12:56:55;;;;;;;8.93;5.87;;;4.70;48.00;;;;;;765514;187;26999;-75
2024/01/08 12:59:22;;;;;;;12.40;6.70;;;4.60;47.70;;;;;;751141;186;26512;-75
2024/01/08 13:01:49;;;;;;;11.80;6.60;;;4.60;47.40;;;;;;762359;186;27113;-74
2024/01/08 13:04:15;;;;;;;11.87;6.67;;;4.50;48.30;;;;;;762496;187;26555;-75
2024/01/08 13:06:43;;;;;;;12.10;6.57;;;4.60;48.10;;;;;;762401;186;27140;-75
2024/01/08 13:09:09;;;;;;;11.13;6.57;;;4.80;48.00;;;;;;763843;186;26481;-73
2024/01/08 13:11:35;;;;;;;12.13;7.33;;;4.80;46.90;;;;;;759807;186;27120;-75
2024/01/08 13:14:04;;;;;;;10.83;6.40;;;4.70;47.00;;;;;;769198;186;26493;-75
2024/01/08 13:16:28;;;;;;;10.37;6.27;;;4.80;47.10;;;;;;764646;186;26491;-73
2024/01/08 13:18:55;;;;;;;12.17;7.10;;;4.70;46.20;;;;;;766894;185;26531;-74
2024/01/08 13:21:21;;;;;;;11.47;6.67;;;4.60;47.00;;;;;;770585;186;26516;-75
2024/01/08 13:23:48;;;;;;;13.10;7.27;;;4.70;48.30;;;;;;769597;184;26465;-75
2024/01/08 13:26:15;;;;;;;11.93;6.87;;;4.80;47.20;;;;;;769910;186;26546;-75
2024/01/08 13:28:41;;;;;;;19.17;7.30;;;4.60;46.00;;;;;;774213;185;27114;-74
2024/01/08 13:31:08;;;;;;;14.50;7.53;;;4.40;46.90;;;;;;769790;185;26511;-74
2024/01/08 13:33:35;;;;;;;12.83;6.57;;;4.30;47.30;;;;;;767654;185;27052;-75
2024/01/08 13:36:02;;;;;;;12.73;7.20;;;4.20;47.10;;;;;;773601;182;26566;-76
2024/01/08 13:38:28;;;;;;;11.90;6.77;;;4.00;46.00;;;;;;771858;185;27098;-75
2024/01/08 13:40:57;;;;;;;13.23;7.10;;;3.70;47.50;;;;;;771121;185;26574;-75
2024/01/08 13:43:22;;;;;;;15.80;7.47;;;3.50;47.10;;;;;;765815;184;26830;-75
2024/01/08 13:45:49;;;;;;;12.50;7.37;;;3.30;48.10;;;;;;767306;185;27059;-76
2024/01/08 13:48:16;;;;;;;15.00;7.00;;;3.20;48.30;;;;;;766479;183;26529;-76
2024/01/08 13:50:43;;;;;;;15.43;8.60;;;2.90;48.10;;;;;;763422;186;26466;-76
2024/01/08 13:53:10;;;;;;;15.40;6.77;;;2.70;49.40;;;;;;763481;185;26473;-76
2024/01/08 13:55:37;;;;;;;16.93;7.83;;;2.60;50.70;;;;;;763332;188;26502;-76
2024/01/08 13:58:05;;;;;;;15.37;7.17;;;2.50;50.80;;;;;;768113;186;26501;-75
2024/01/08 14:00:31;;;;;;;13.40;6.80;;;2.30;51.00;;;;;;766865;185;26471;-76
2024/01/08 14:02:58;;;;;;;14.27;7.00;;;2.20;51.20;;;;;;765767;187;26480;-76
2024/01/08 14:05:25;;;;;;;12.43;6.43;;;2.10;51.70;;;;;;766030;186;26518;-74
2024/01/08 14:07:52;;;;;;;13.90;6.90;;;2.00;52.40;;;;;;769982;182;26481;-74
2024/01/08 14:10:19;;;;;;;15.87;7.90;;;1.90;52.30;;;;;;769995;186;26561;-74
2024/01/08 14:12:46;;;;;;;16.50;7.10;;;1.80;52.90;;;;;;770096;186;26494;-74
2024/01/08 14:15:13;;;;;;;14.33;6.50;;;1.70;53.20;;;;;;770222;185;26505;-75
2024/01/08 14:17:41;;;;;;;16.47;8.80;;;1.60;53.00;;;;;;769981;186;26509;-74
2024/01/08 14:20:09;;;;;;;12.73;6.57;;;1.50;53.50;;;;;;769942;185;27027;-74
2024/01/08 14:22:36;;;;;;;10.63;6.47;;;1.40;53.20;;;;;;769831;182;26582;-74
2024/01/08 14:25:02;;;;;;;16.07;6.83;;;1.30;53.30;;;;;;770120;184;26534;-74
2024/01/08 14:27:29;;;;;;;15.57;7.63;;;1.20;54.10;;;;;;770068;186;26539;-74
2024/01/08 14:29:58;;;;;;;15.93;7.67;;;1.20;55.50;;;;;;770146;186;26570;-74
2024/01/08 14:32:24;;;;;;;12.63;6.90;;;1.20;56.30;;;;;;762282;185;27037;-74
2024/01/08 14:34:50;;;;;;;14.93;7.27;;;1.20;56.30;;;;;;767400;184;26506;-74
2024/01/08 14:37:16;;;;;;;14.57;7.27;;;1.10;56.30;;;;;;771971;183;26511;-73
2024/01/08 14:39:43;;;;;;;14.83;8.00;;;1.00;55.70;;;;;;771633;185;26563;-72
2024/01/08 14:42:10;;;;;;;15.53;7.90;;;1.00;56.40;;;;;;771451;185;26512;-74
2024/01/08 14:44:36;;;;;;;11.67;6.80;;;0.90;56.40;;;;;;771046;184;26483;-74
2024/01/08 14:47:02;;;;;;;14.53;6.57;;;0.90;56.20;;;;;;770953;186;26487;-74
2024/01/08 14:49:30;;;;;;;13.83;7.67;;;0.80;55.60;;;;;;771102;186;26502;-73
2024/01/08 14:51:56;;;;;;;12.77;6.80;;;0.80;56.40;;;;;;770886;185;28258;-74
2024/01/08 14:54:23;;;;;;;13.60;7.13;;;0.70;56.10;;;;;;769018;185;26573;-71
2024/01/08 14:56:49;;;;;;;10.53;6.57;;;0.70;57.20;;;;;;766253;187;27047;-74
2024/01/08 14:59:16;;;;;;;20.70;8.73;;;0.60;57.30;;;;;;766265;187;26599;-74
2024/01/08 15:01:43;;;;;;;16.93;8.70;;;0.60;56.70;;;;;;766417;187;28149;-75
2024/01/08 15:04:09;;;;;;;15.60;8.03;;;0.60;56.90;;;;;;768626;185;26484;-74
2024/01/08 15:06:36;;;;;;;14.93;7.60;;;0.50;56.40;;;;;;766189;187;28088;-74
2024/01/08 15:09:04;;;;;;;13.77;7.17;;;0.40;56.30;;;;;;766253;187;26490;-72
2024/01/08 15:11:29;;;;;;;11.83;6.87;;;0.40;56.80;;;;;;767598;186;27130;-74
2024/01/08 15:13:56;;;;;;;24.60;11.60;;;0.30;57.90;;;;;;773093;186;26471;-75
2024/01/08 15:16:22;;;;;;;20.27;9.27;;;0.30;58.20;;;;;;772820;185;28174;-73
2024/01/08 15:18:49;;;;;;;16.17;8.03;;;0.30;57.80;;;;;;772970;186;26488;-74
2024/01/08 15:21:15;;;;;;;14.27;7.63;;;0.20;58.40;;;;;;773023;185;28168;-74
2024/01/08 15:23:44;;;;;;;14.97;7.50;;;0.20;58.60;;;;;;773053;185;26534;-74
2024/01/08 15:26:09;;;;;;;14.40;7.67;;;0.20;59.20;;;;;;772781;185;28194;-71
2024/01/08 15:28:35;;;;;;;14.50;7.93;;;0.20;60.20;;;;;;773044;185;26535;-74
2024/01/08 15:31:03;;;;;;;18.73;8.57;;;0.10;59.40;;;;;;772995;185;28156;-74
2024/01/08 15:33:28;;;;;;;17.77;8.03;;;0.10;59.40;;;;;;772882;185;26518;-74
2024/01/08 15:35:57;;;;;;;17.97;8.27;;;0.00;59.10;;;;;;773008;186;27012;-75
2024/01/08 15:38:22;;;;;;;17.60;7.70;;;0.00;59.20;;;;;;773100;185;26538;-74
2024/01/08 15:40:49;;;;;;;17.23;8.97;;;0.00;59.60;;;;;;773029;186;27033;-74
2024/01/08 15:43:15;;;;;;;13.53;7.87;;;-0.10;60.30;;;;;;773054;186;26463;-72
2024/01/08 15:45:42;;;;;;;20.47;8.63;;;-0.10;61.40;;;;;;773911;183;27117;-74
2024/01/08 15:48:08;;;;;;;20.53;8.40;;;-0.10;60.30;;;;;;775209;184;26529;-75
2024/01/08 15:50:35;;;;;;;16.07;7.93;;;-0.20;59.50;;;;;;774735;185;27076;-74
2024/01/08 15:53:03;;;;;;;19.13;8.37;;;-0.20;60.80;;;;;;774480;185;26467;-74
2024/01/08 15:55:28;;;;;;;17.60;9.40;;;-0.20;60.00;;;;;;774050;185;27242;-74
2024/01/08 15:57:55;;;;;;;13.23;8.00;;;-0.30;60.60;;;;;;771218;185;26456;-72
2024/01/08 16:00:21;;;;;;;14.97;7.47;;;-0.30;61.40;;;;;;766937;185;27176;-72
2024/01/08 16:02:48;;;;;;;13.30;7.50;;;-0.30;60.10;;;;;;766756;187;26497;-74
2024/01/08 16:05:15;;;;;;;17.13;8.27;;;-0.30;60.10;;;;;;768814;185;26509;-73
2024/01/08 16:07:41;;;;;;;17.67;8.50;;;-0.30;60.60;;;;;;768125;183;26461;-74
2024/01/08 16:10:08;;;;;;;25.33;11.33;;;-0.40;60.00;;;;;;766839;185;27066;-73
2024/01/08 16:12:35;;;;;;;15.73;8.17;;;-0.40;60.60;;;;;;771378;185;26550;-74
2024/01/08 16:15:03;;;;;;;17.77;7.97;;;-0.40;60.10;;;;;;766278;187;26459;-74
2024/01/08 16:17:28;;;;;;;17.23;8.30;;;-0.50;61.30;;;;;;766854;185;26481;-74
2024/01/08 16:19:55;;;;;;;19.23;8.63;;;-0.50;61.40;;;;;;766939;185;27088;-74
2024/01/08 16:22:21;;;;;;;18.73;9.73;;;-0.50;62.00;;;;;;766390;185;26598;-75
2024/01/08 16:24:48;;;;;;;22.40;9.33;;;-0.50;61.40;;;;;;767542;186;27080;-75
2024/01/08 16:27:14;;;;;;;24.43;10.43;;;-0.50;61.90;;;;;;768558;185;26543;-72
2024/01/08 16:29:41;;;;;;;20.67;8.57;;;-0.50;61.10;;;;;;768228;186;27109;-74
2024/01/08 16:32:08;;;;;;;18.63;9.33;;;-0.50;61.90;;;;;;769098;186;26531;-75
2024/01/08 16:34:34;;;;;;;19.43;8.00;;;-0.50;62.00;;;;;;768808;182;27108;-74
2024/01/08 16:37:01;;;;;;;19.80;7.97;;;-0.50;62.40;;;;;;765694;186;26449;-73
2024/01/08 16:39:27;;;;;;;20.10;9.47;;;-0.50;62.10;;;;;;767117;186;26469;-73
2024/01/08 16:41:54;;;;;;;17.00;8.53;;;-0.50;61.50;;;;;;767876;186;27223;-74
2024/01/08 16:44:21;;;;;;;16.23;9.27;;;-0.60;61.80;;;;;;765857;183;26454;-74
2024/01/08 16:46:47;;;;;;;18.73;9.67;;;-0.60;61.70;;;;;;769506;184;26538;-73
2024/01/08 16:49:14;;;;;;;18.87;8.60;;;-0.60;62.10;;;;;;769081;186;26486;-73
2024/01/08 16:51:41;;;;;;;19.00;9.10;;;-0.60;61.70;;;;;;765991;185;26471;-74
2024/01/08 16:54:10;;;;;;;17.83;8.20;;;-0.60;61.20;;;;;;768463;186;26515;-74
2024/01/08 16:56:36;;;;;;;22.70;9.67;;;-0.70;61.40;;;;;;763215;186;26497;-73
2024/01/08 16:59:03;;;;;;;16.00;7.57;;;-0.70;62.80;;;;;;764873;186;27064;-72
2024/01/08 17:01:33;;;;;;;16.20;8.27;;;-0.70;63.70;;;;;;763916;188;26568;-74
2024/01/08 17:03:56;;;;;;;19.23;9.77;;;-0.70;60.30;;;;;;763463;188;27080;-74
2024/01/08 17:06:23;;;;;;;23.77;10.77;;;-0.70;62.10;;;;;;763611;188;26575;-75
2024/01/08 17:08:49;;;;;;;19.70;8.80;;;-0.70;63.10;;;;;;763378;188;26520;-75
2024/01/08 17:11:16;;;;;;;19.47;9.40;;;-0.70;63.80;;;;;;763527;188;26499;-75
2024/01/08 17:13:42;;;;;;;19.40;8.93;;;-0.80;64.20;;;;;;763515;188;26464;-75
2024/01/08 17:16:09;;;;;;;18.67;9.23;;;-0.80;65.60;;;;;;763163;188;26512;-74
2024/01/08 17:18:36;;;;;;;18.07;9.93;;;-0.80;64.20;;;;;;763123;188;26519;-75
2024/01/08 17:21:02;;;;;;;19.60;9.30;;;-0.80;63.50;;;;;;763120;188;27073;-75
2024/01/08 17:23:29;;;;;;;19.33;8.20;;;-0.80;62.00;;;;;;763064;188;26521;-73
2024/01/08 17:25:55;;;;;;;17.20;8.70;;;-0.90;61.70;;;;;;762979;188;28124;-75
2024/01/08 17:28:22;;;;;;;22.23;9.80;;;-0.90;61.70;;;;;;763171;188;26520;-75
2024/01/08 17:30:49;;;;;;;18.37;10.00;;;-0.90;61.60;;;;;;763378;188;28176;-75
2024/01/08 17:33:15;;;;;;;23.93;10.33;;;-0.90;61.50;;;;;;762962;188;26523;-75
2024/01/08 17:35:42;;;;;;;17.50;9.10;;;-0.90;61.40;;;;;;762592;188;26498;-73
2024/01/08 17:38:08;;;;;;;21.67;10.13;;;-1.00;60.40;;;;;;762454;184;26497;-74
2024/01/08 17:40:35;;;;;;;19.37;9.60;;;-0.90;61.90;;;;;;762620;188;26489;-75
2024/01/08 17:43:01;;;;;;;22.87;9.37;;;-1.00;62.50;;;;;;762679;188;27047;-75
2024/01/08 17:45:28;;;;;;;23.23;10.87;;;-1.00;63.40;;;;;;762700;188;26485;-75
2024/01/08 17:47:55;;;;;;;20.10;9.67;;;-1.00;64.20;;;;;;762566;188;26497;-74
2024/01/08 17:50:21;;;;;;;23.67;10.20;;;-1.00;64.50;;;;;;762698;188;26998;-72
2024/01/08 17:52:48;;;;;;;21.40;10.00;;;-1.00;63.80;;;;;;764160;186;26517;-75
2024/01/08 17:55:15;;;;;;;21.47;9.93;;;-1.10;63.80;;;;;;768137;182;27088;-75
2024/01/08 17:57:41;;;;;;;21.00;9.87;;;-1.10;64.50;;;;;;773168;186;27108;-75
2024/01/08 18:00:08;;;;;;;22.93;10.50;;;-1.10;63.50;;;;;;765746;184;26460;-77
2024/01/08 18:02:35;;;;;;;22.57;9.83;;;-1.10;63.20;;;;;;762974;188;26472;-75
2024/01/08 18:05:02;;;;;;;25.00;11.13;;;-1.10;63.80;;;;;;763053;188;27053;-72
2024/01/08 18:07:28;;;;;;;25.87;11.63;;;-1.10;62.70;;;;;;763093;186;26457;-74
2024/01/08 18:09:55;;;;;;;26.77;11.57;;;-1.20;63.70;;;;;;772269;184;28142;-75
2024/01/08 18:12:22;;;;;;;19.23;9.73;;;-1.20;64.60;;;;;;770633;182;26574;-75
2024/01/08 18:14:48;;;;;;;26.70;10.93;;;-1.20;63.90;;;;;;769704;186;26462;-75
2024/01/08 18:17:15;;;;;;;21.63;10.20;;;-1.20;64.80;;;;;;768011;185;26533;-75
2024/01/08 18:19:42;;;;;;;20.43;9.93;;;-1.20;64.30;;;;;;766820;187;27103;-73
2024/01/08 18:22:08;;;;;;;28.07;10.77;;;-1.20;63.20;;;;;;766791;184;27091;-75
2024/01/08 18:24:37;;;;;;;27.60;10.53;;;-1.30;63.20;;;;;;766715;187;26481;-76
2024/01/08 18:27:04;;;;;;;24.47;10.77;;;-1.20;63.90;;;;;;766439;186;27008;-76
2024/01/08 18:29:30;;;;;;;24.10;11.03;;;-1.30;63.50;;;;;;766127;184;27072;-76
2024/01/08 18:31:57;;;;;;;29.17;11.23;;;-1.30;62.30;;;;;;766390;185;26531;-76
2024/01/08 18:34:24;;;;;;;20.60;10.37;;;-1.30;63.50;;;;;;765751;187;26910;-74
2024/01/08 18:36:51;;;;;;;20.17;9.63;;;-1.30;64.40;;;;;;763106;182;26504;-77
2024/01/08 18:39:19;;;;;;;24.43;9.93;;;-1.30;64.40;;;;;;763033;187;27006;-76